createdAt,value
2022-10-11T00:00:20.591Z,82.94
2022-10-11T00:02:48.226Z,82.47
2022-10-11T00:05:15.666Z,82.73
2022-10-11T00:07:43.432Z,84.01
2022-10-11T00:10:11.349Z,83.62
2022-10-11T00:12:39.074Z,82.95
2022-10-11T00:15:07.691Z,82.94
2022-10-11T00:17:35.395Z,83.56
2022-10-11T00:20:03.287Z,82.75
2022-10-11T00:22:30.964Z,83.41
2022-10-11T00:24:59.246Z,84.28
2022-10-11T00:27:26.985Z,82.98
2022-10-11T00:29:54.549Z,82.50
2022-10-11T00:32:22.291Z,82.33
2022-10-11T00:34:50.176Z,82.54
2022-10-11T00:37:18.195Z,82.13
2022-10-11T00:39:45.952Z,82.06
2022-10-11T00:42:14.967Z,82.03
2022-10-11T00:44:47.528Z,81.94
2022-10-11T00:47:18.760Z,82.40
2022-10-11T00:49:52.172Z,82.26
2022-10-11T00:52:50.296Z,82.92
2022-10-11T00:55:20.593Z,83.13
2022-10-11T00:57:52.496Z,83.13
2022-10-11T01:00:20.452Z,83.51
2022-10-11T01:02:48.346Z,82.63
2022-10-11T01:05:29.150Z,82.41
2022-10-11T01:08:01.152Z,81.64
2022-10-11T01:10:29.395Z,81.53
2022-10-11T01:13:08.728Z,82.03
2022-10-11T01:15:43.543Z,82.56
2022-10-11T01:18:23.031Z,82.56
2022-10-11T01:21:16.984Z,83.02
2022-10-11T01:23:50.491Z,85.53
2022-10-11T01:26:41.973Z,86.14
2022-10-11T01:29:46.868Z,86.04
2022-10-11T01:32:29.822Z,84.90
2022-10-11T01:35:27.251Z,83.23
2022-10-11T01:38:10.251Z,85.15
2022-10-11T01:40:45.614Z,84.64
2022-10-11T01:43:15.443Z,83.70
2022-10-11T01:45:44.772Z,83.55
2022-10-11T01:48:13.962Z,82.98
2022-10-11T01:50:50.354Z,82.72
2022-10-11T01:53:26.733Z,82.29
2022-10-11T01:55:59.272Z,82.17
2022-10-11T01:58:57.421Z,82.30
2022-10-11T02:01:28.814Z,82.87
2022-10-11T02:04:16.718Z,82.62
2022-10-11T02:07:19.367Z,82.83
2022-10-11T02:10:07.257Z,82.68
2022-10-11T02:12:42.074Z,84.23
2022-10-11T02:15:12.647Z,83.58
2022-10-11T02:17:45.649Z,83.98
2022-10-11T02:20:19.409Z,84.88
2022-10-11T02:22:51.732Z,84.27
2022-10-11T02:25:24.548Z,84.21
2022-10-11T02:27:57.319Z,84.44
2022-10-11T02:30:25.359Z,83.71
2022-10-11T02:32:54.613Z,83.58
2022-10-11T02:35:26.830Z,84.30
2022-10-11T02:38:09.267Z,87.07
2022-10-11T02:40:40.929Z,86.44
2022-10-11T02:43:18.041Z,85.66
2022-10-11T02:45:51.004Z,86.14
2022-10-11T02:48:19.377Z,85.21
2022-10-11T02:50:47.388Z,85.41
2022-10-11T02:53:14.843Z,84.50
2022-10-11T02:55:42.509Z,83.56
2022-10-11T02:58:09.906Z,84.15
2022-10-11T03:00:37.384Z,84.67
2022-10-11T03:03:05.071Z,84.47
2022-10-11T03:05:37.175Z,83.81
2022-10-11T03:08:04.949Z,83.78
2022-10-11T03:10:33.790Z,83.28
2022-10-11T03:13:01.276Z,83.16
2022-10-11T03:15:29.709Z,82.67
2022-10-11T03:17:57.248Z,82.68
2022-10-11T03:20:25.265Z,83.05
2022-10-11T03:22:53.838Z,83.62
2022-10-11T03:25:21.258Z,83.66
2022-10-11T03:27:48.784Z,82.96
2022-10-11T03:30:18.321Z,82.23
2022-10-11T03:32:46.259Z,82.64
2022-10-11T03:35:13.727Z,83.34
2022-10-11T03:37:41.423Z,84.46
2022-10-11T03:40:09.827Z,83.11
2022-10-11T03:42:37.453Z,83.37
2022-10-11T03:45:08.256Z,83.39
2022-10-11T03:47:37.400Z,83.66
2022-10-11T03:50:07.432Z,83.90
2022-10-11T03:52:35.323Z,83.42
2022-10-11T03:55:02.758Z,83.28
2022-10-11T03:57:30.620Z,83.90
2022-10-11T03:59:58.023Z,84.41
2022-10-11T04:02:25.505Z,84.60
2022-10-11T04:04:53.203Z,84.83
2022-10-11T04:07:20.634Z,84.62
2022-10-11T04:09:48.468Z,85.09
2022-10-11T04:12:16.160Z,85.47
2022-10-11T04:14:43.541Z,86.01
2022-10-11T04:17:10.993Z,85.08
2022-10-11T04:19:38.664Z,84.59
2022-10-11T04:22:06.824Z,84.12
2022-10-11T04:24:34.248Z,83.42
2022-10-11T04:27:01.947Z,82.84
2022-10-11T04:29:32.624Z,83.39
2022-10-11T04:32:00.367Z,85.18
2022-10-11T04:34:28.113Z,84.29
2022-10-11T04:36:55.710Z,83.63
2022-10-11T04:39:23.334Z,83.25
2022-10-11T04:41:51.327Z,83.32
2022-10-11T04:44:18.737Z,83.41
2022-10-11T04:46:46.127Z,83.42
2022-10-11T04:49:14.361Z,83.80
2022-10-11T04:51:41.774Z,84.57
2022-10-11T04:54:09.185Z,84.73
2022-10-11T04:56:36.903Z,84.91
2022-10-11T04:59:04.300Z,84.66
2022-10-11T05:01:31.663Z,84.59
2022-10-11T05:03:59.366Z,84.46
2022-10-11T05:06:26.807Z,84.42
2022-10-11T05:08:54.437Z,84.21
2022-10-11T05:11:22.441Z,85.01
2022-10-11T05:13:49.915Z,85.07
2022-10-11T05:16:18.014Z,85.30
2022-10-11T05:18:45.946Z,85.31
2022-10-11T05:21:20.110Z,84.80
2022-10-11T05:23:49.752Z,84.35
2022-10-11T05:26:18.227Z,84.48
2022-10-11T05:28:47.112Z,84.76
2022-10-11T05:31:16.327Z,85.01
2022-10-11T05:33:44.074Z,86.20
2022-10-11T05:36:12.023Z,86.27
2022-10-11T05:38:40.351Z,87.59
2022-10-11T05:41:09.293Z,89.13
2022-10-11T05:43:36.729Z,90.08
2022-10-11T05:46:04.880Z,89.92
2022-10-11T05:48:32.893Z,89.72
2022-10-11T05:51:03.029Z,89.40
2022-10-11T05:53:30.775Z,89.07
2022-10-11T05:55:58.508Z,89.45
2022-10-11T05:58:26.334Z,89.35
2022-10-11T06:00:54.805Z,89.70
2022-10-11T06:03:23.291Z,89.73
2022-10-11T06:05:55.765Z,89.92
2022-10-11T06:08:24.349Z,90.15
2022-10-11T06:10:51.732Z,88.59
2022-10-11T06:13:19.162Z,88.26
2022-10-11T06:15:46.816Z,87.44
2022-10-11T06:18:15.219Z,87.25
2022-10-11T06:20:42.592Z,87.09
2022-10-11T06:23:10.294Z,86.20
2022-10-11T06:25:37.679Z,86.04
2022-10-11T06:28:05.119Z,85.96
2022-10-11T06:30:32.772Z,86.03
2022-10-11T06:33:04.565Z,86.64
2022-10-11T06:35:32.743Z,87.38
2022-10-11T06:38:00.115Z,87.83
2022-10-11T06:40:27.561Z,87.02
2022-10-11T06:42:55.298Z,86.06
2022-10-11T06:45:22.749Z,86.00
2022-10-11T06:47:50.139Z,85.77
2022-10-11T06:50:29.896Z,86.23
2022-10-11T06:53:06.911Z,86.57
2022-10-11T06:55:34.953Z,86.96
2022-10-11T06:58:02.339Z,87.29
2022-10-11T07:00:29.799Z,87.77
2022-10-11T07:02:57.482Z,88.30
2022-10-11T07:05:24.959Z,88.46
2022-10-11T07:07:52.656Z,88.42
2022-10-11T07:10:20.423Z,88.39
2022-10-11T07:12:47.800Z,88.69
2022-10-11T07:15:15.300Z,88.02
2022-10-11T07:17:43.007Z,87.44
2022-10-11T07:20:11.609Z,87.89
2022-10-11T07:22:39.279Z,87.99
2022-10-11T07:25:07.419Z,87.36
2022-10-11T07:27:34.814Z,87.28
2022-10-11T07:30:02.346Z,87.01
2022-10-11T07:32:30.031Z,87.15
2022-10-11T07:34:57.732Z,87.46
2022-10-11T07:37:25.211Z,87.90
2022-10-11T07:39:52.883Z,88.51
2022-10-11T07:42:20.350Z,88.90
2022-10-11T07:44:47.722Z,88.52
2022-10-11T07:47:15.399Z,88.28
2022-10-11T07:49:42.824Z,87.71
2022-10-11T07:52:10.237Z,87.25
2022-10-11T07:54:40.125Z,86.89
2022-10-11T07:57:07.523Z,86.43
2022-10-11T07:59:35.040Z,86.64
2022-10-11T08:02:04.547Z,86.76
2022-10-11T08:04:33.276Z,86.76
2022-10-11T08:07:00.677Z,86.85
2022-10-11T08:09:28.441Z,86.92
2022-10-11T08:11:56.123Z,87.08
2022-10-11T08:14:23.641Z,86.77
2022-10-11T08:16:51.071Z,87.61
2022-10-11T08:19:18.969Z,87.32
2022-10-11T08:21:46.495Z,86.46
2022-10-11T08:24:14.118Z,86.04
2022-10-11T08:26:42.053Z,83.86
2022-10-11T08:29:09.673Z,82.29
2022-10-11T08:31:37.080Z,81.55
2022-10-11T08:34:04.792Z,80.24
2022-10-11T08:36:32.485Z,80.66
2022-10-11T08:39:00.888Z,79.29
2022-10-11T08:41:55.316Z,77.23
2022-10-11T08:45:05.865Z,75.49
2022-10-11T08:47:36.282Z,74.22
2022-10-11T08:50:08.385Z,73.36
2022-10-11T08:52:48.692Z,72.24
2022-10-11T08:55:40.282Z,71.37
2022-10-11T08:58:14.023Z,68.73
2022-10-11T09:00:42.724Z,68.96
2022-10-11T09:03:37.080Z,68.68
2022-10-11T09:06:36.289Z,67.90
2022-10-11T09:09:21.422Z,67.77
2022-10-11T09:12:07.002Z,66.26
2022-10-11T09:14:37.590Z,64.09
2022-10-11T09:17:22.986Z,62.76
2022-10-11T09:20:28.036Z,62.08
2022-10-11T09:23:13.839Z,61.21
2022-10-11T09:25:55.474Z,60.62
2022-10-11T09:29:01.212Z,61.09
2022-10-11T09:31:30.428Z,61.64
2022-10-11T09:34:05.840Z,62.39
2022-10-11T09:36:49.882Z,63.25
2022-10-11T09:39:33.121Z,62.52
2022-10-11T09:42:10.066Z,62.47
2022-10-11T09:44:41.492Z,62.02
2022-10-11T09:47:16.548Z,61.51
2022-10-11T09:49:52.088Z,61.86
2022-10-11T09:52:23.902Z,62.00
2022-10-11T09:55:19.544Z,62.30
2022-10-11T09:57:54.802Z,62.41
2022-10-11T10:00:25.285Z,61.62
2022-10-11T10:02:55.655Z,62.38
2022-10-11T10:05:28.083Z,62.83
2022-10-11T10:08:04.476Z,63.12
2022-10-11T10:10:41.563Z,63.82
2022-10-11T10:13:23.371Z,63.71
2022-10-11T10:15:53.722Z,63.82
2022-10-11T10:18:32.494Z,64.66
2022-10-11T10:21:01.039Z,64.78
2022-10-11T10:23:31.948Z,65.42
2022-10-11T10:26:20.830Z,65.76
2022-10-11T10:29:02.100Z,65.30
2022-10-11T10:32:16.169Z,65.67
2022-10-11T10:34:39.767Z,65.93
2022-10-11T10:37:22.804Z,65.73
2022-10-11T10:40:13.771Z,65.63
2022-10-11T10:42:41.338Z,65.75
2022-10-11T10:45:21.226Z,65.84
2022-10-11T10:47:55.103Z,65.91
2022-10-11T10:50:30.646Z,65.88
2022-10-11T10:53:25.602Z,63.51
2022-10-11T10:56:06.025Z,60.34
2022-10-11T10:58:51.891Z,58.56
2022-10-11T11:01:33.100Z,56.16
2022-10-11T11:04:30.166Z,54.03
2022-10-11T11:09:50.183Z,54.28
2022-10-11T11:12:35.311Z,54.03
2022-10-11T11:15:04.599Z,54.91
2022-10-11T11:17:32.347Z,55.59
2022-10-11T11:20:31.692Z,56.12
2022-10-11T11:23:37.761Z,56.89
2022-10-11T11:26:23.221Z,55.99
2022-10-11T11:29:18.982Z,54.46
2022-10-11T11:32:07.499Z,53.43
2022-10-11T11:34:42.487Z,52.96
2022-10-11T11:37:30.727Z,53.76
2022-10-11T11:40:16.534Z,54.67
2022-10-11T11:42:51.686Z,56.48
2022-10-11T11:45:24.186Z,55.90
2022-10-11T11:48:24.687Z,56.83
2022-10-11T11:51:01.410Z,54.51
2022-10-11T11:53:51.221Z,54.73
2022-10-11T11:56:53.850Z,54.03
2022-10-11T11:59:36.876Z,53.96
2022-10-11T12:02:13.641Z,55.08
2022-10-11T12:04:44.323Z,55.24
2022-10-11T12:07:18.225Z,55.19
2022-10-11T12:09:51.542Z,56.06
2022-10-11T12:12:30.336Z,57.03
2022-10-11T12:15:10.071Z,56.53
2022-10-11T12:17:58.568Z,56.90
2022-10-11T12:20:27.559Z,57.74
2022-10-11T12:23:00.538Z,57.14
2022-10-11T12:25:33.431Z,56.53
2022-10-11T12:28:20.541Z,56.97
2022-10-11T12:30:53.355Z,56.61
2022-10-11T12:33:32.811Z,55.98
2022-10-11T12:36:22.757Z,56.31
2022-10-11T12:39:21.235Z,56.80
2022-10-11T12:41:50.971Z,56.62
2022-10-11T12:44:18.291Z,57.11
2022-10-11T12:46:53.544Z,58.03
2022-10-11T12:49:33.468Z,57.20
2022-10-11T12:52:22.544Z,58.18
2022-10-11T12:54:55.986Z,58.31
2022-10-11T12:57:23.393Z,59.21
2022-10-11T12:59:51.309Z,58.23
2022-10-11T13:02:36.723Z,57.86
2022-10-11T13:05:32.081Z,58.01
2022-10-11T13:08:04.239Z,58.23
2022-10-11T13:10:44.626Z,58.94
2022-10-11T13:13:40.648Z,58.45
2022-10-11T13:16:22.221Z,58.78
2022-10-11T13:18:54.472Z,59.07
2022-10-11T13:21:51.648Z,59.16
2022-10-11T13:24:20.297Z,59.19
2022-10-11T13:26:50.561Z,58.70
2022-10-11T13:29:27.032Z,58.99
2022-10-11T13:31:54.835Z,59.46
2022-10-11T13:34:23.566Z,59.62
2022-10-11T13:36:58.751Z,59.81
2022-10-11T13:39:34.804Z,59.23
2022-10-11T13:42:06.955Z,59.08
2022-10-11T13:44:37.540Z,59.24
2022-10-11T13:47:05.490Z,59.08
2022-10-11T13:49:39.899Z,57.75
2022-10-11T13:52:20.109Z,56.65
2022-10-11T13:54:53.362Z,56.68
2022-10-11T13:57:29.043Z,56.45
2022-10-11T13:59:56.554Z,56.71
2022-10-11T14:02:27.129Z,57.19
2022-10-11T14:04:54.885Z,57.00
2022-10-11T14:07:31.917Z,56.73
2022-10-11T14:09:59.795Z,56.34
2022-10-11T14:12:30.735Z,56.74
2022-10-11T14:15:00.567Z,56.08
2022-10-11T14:17:46.058Z,56.41
2022-10-11T14:20:35.496Z,57.19
2022-10-11T14:23:03.391Z,57.42
2022-10-11T14:25:30.919Z,57.96
2022-10-11T14:27:59.397Z,58.05
2022-10-11T14:30:28.201Z,58.35
2022-10-11T14:33:00.200Z,58.50
2022-10-11T14:35:31.889Z,58.67
2022-10-11T14:37:59.715Z,59.29
2022-10-11T14:40:30.334Z,59.92
2022-10-11T14:42:58.132Z,60.11
2022-10-11T14:45:25.595Z,60.63
2022-10-11T14:47:53.043Z,61.27
2022-10-11T14:50:55.472Z,61.66
2022-10-11T14:53:22.947Z,61.89
2022-10-11T14:55:50.995Z,62.20
2022-10-11T14:58:19.066Z,62.53
2022-10-11T15:00:46.507Z,63.23
2022-10-11T15:03:14.296Z,63.19
2022-10-11T15:05:41.717Z,63.32
2022-10-11T15:08:09.156Z,63.57
2022-10-11T15:10:40.062Z,63.66
2022-10-11T15:13:08.876Z,63.85
2022-10-11T15:15:38.011Z,63.95
2022-10-11T15:18:07.003Z,63.95
2022-10-11T15:20:37.809Z,64.18
2022-10-11T15:23:07.946Z,64.15
2022-10-11T15:25:37.836Z,64.09
2022-10-11T15:28:06.695Z,64.29
2022-10-11T15:30:41.026Z,64.39
2022-10-11T15:33:09.275Z,64.73
2022-10-11T15:35:36.706Z,64.54
2022-10-11T15:38:04.129Z,64.43
2022-10-11T15:40:36.979Z,64.71
2022-10-11T15:43:04.886Z,64.78
2022-10-11T15:45:32.848Z,64.52
2022-10-11T15:48:00.314Z,64.64
2022-10-11T15:50:39.984Z,64.72
2022-10-11T15:53:13.557Z,64.60
2022-10-11T15:55:43.790Z,64.64
2022-10-11T15:58:27.570Z,64.85
2022-10-11T16:00:57.070Z,65.24
2022-10-11T16:03:27.890Z,65.72
2022-10-11T16:05:58.871Z,65.66
2022-10-11T16:08:28.827Z,65.49
2022-10-11T16:10:57.248Z,65.50
2022-10-11T16:13:24.685Z,65.77
2022-10-11T16:15:52.640Z,66.94
2022-10-11T16:18:21.145Z,66.95
2022-10-11T16:20:51.412Z,67.22
2022-10-11T16:23:21.319Z,67.61
2022-10-11T16:25:59.403Z,67.82
2022-10-11T16:28:28.437Z,68.54
2022-10-11T16:30:56.469Z,69.82
2022-10-11T16:33:24.288Z,69.85
2022-10-11T16:35:52.412Z,69.71
2022-10-11T16:38:19.806Z,69.36
2022-10-11T16:40:47.272Z,68.85
2022-10-11T16:43:15.023Z,68.74
2022-10-11T16:45:42.428Z,68.65
2022-10-11T16:48:09.828Z,68.95
2022-10-11T16:50:39.611Z,69.92
2022-10-11T16:53:07.251Z,70.66
2022-10-11T16:55:34.649Z,70.99
2022-10-11T16:58:02.397Z,71.10
2022-10-11T17:00:29.894Z,71.67
2022-10-11T17:02:57.355Z,72.26
2022-10-11T17:05:25.012Z,72.58
2022-10-11T17:07:52.546Z,72.76
2022-10-11T17:10:39.160Z,72.65
2022-10-11T17:13:07.079Z,73.26
2022-10-11T17:15:36.042Z,74.03
2022-10-11T17:18:04.008Z,74.14
2022-10-11T17:20:32.072Z,73.98
2022-10-11T17:22:59.522Z,74.13
2022-10-11T17:25:27.805Z,74.17
2022-10-11T17:27:56.693Z,74.27
2022-10-11T17:30:25.224Z,74.32
2022-10-11T17:32:52.636Z,74.13
2022-10-11T17:35:20.400Z,74.86
2022-10-11T17:37:49.892Z,74.94
2022-10-11T17:40:17.656Z,74.96
2022-10-11T17:42:45.338Z,75.16
2022-10-11T17:45:12.729Z,74.06
2022-10-11T17:47:40.172Z,73.67
2022-10-11T17:50:08.200Z,74.33
2022-10-11T17:52:35.643Z,74.49
2022-10-11T17:55:03.740Z,74.63
2022-10-11T17:57:31.475Z,74.66
2022-10-11T17:59:58.908Z,74.82
2022-10-11T18:02:26.328Z,75.09
2022-10-11T18:04:54.014Z,75.32
2022-10-11T18:07:21.460Z,75.89
2022-10-11T18:09:48.899Z,76.04
2022-10-11T18:12:16.633Z,76.13
2022-10-11T18:14:44.076Z,76.31
2022-10-11T18:17:11.543Z,76.29
2022-10-11T18:19:39.270Z,76.89
2022-10-11T18:22:07.353Z,76.79
2022-10-11T18:24:34.994Z,75.79
2022-10-11T18:27:03.055Z,75.98
2022-10-11T18:29:30.523Z,75.96
2022-10-11T18:31:57.979Z,76.00
2022-10-11T18:34:25.685Z,76.10
2022-10-11T18:36:53.228Z,75.88
2022-10-11T18:39:21.876Z,75.86
2022-10-11T18:41:50.026Z,75.35
2022-10-11T18:44:17.521Z,75.21
2022-10-11T18:46:45.713Z,74.89
2022-10-11T18:49:13.816Z,74.73
2022-10-11T18:51:42.404Z,74.71
2022-10-11T18:54:14.017Z,74.60
2022-10-11T18:56:44.951Z,74.60
2022-10-11T18:59:12.411Z,74.53
2022-10-11T19:01:41.983Z,74.41
2022-10-11T19:04:11.674Z,74.27
2022-10-11T19:06:43.077Z,74.29
2022-10-11T19:09:17.833Z,74.31
2022-10-11T19:11:45.312Z,74.35
2022-10-11T19:14:15.251Z,74.74
2022-10-11T19:16:49.702Z,75.02
2022-10-11T19:19:22.836Z,75.39
2022-10-11T19:21:50.610Z,75.67
2022-10-11T19:24:20.498Z,75.78
2022-10-11T19:26:48.720Z,76.25
2022-10-11T19:29:19.995Z,76.15
2022-10-11T19:31:56.583Z,75.87
2022-10-11T19:34:27.561Z,76.57
2022-10-11T19:36:56.576Z,76.43
2022-10-11T19:39:25.505Z,77.00
2022-10-11T19:41:53.652Z,77.54
2022-10-11T19:44:21.378Z,77.13
2022-10-11T19:46:53.010Z,76.96
2022-10-11T19:49:24.839Z,77.74
2022-10-11T19:51:53.669Z,78.60
2022-10-11T19:54:21.925Z,78.04
2022-10-11T19:56:49.437Z,77.45
2022-10-11T19:59:17.145Z,77.18
2022-10-11T20:01:50.973Z,77.21
2022-10-11T20:04:50.949Z,77.70
2022-10-11T20:07:08.023Z,78.11
2022-10-11T20:09:35.695Z,78.63
2022-10-11T20:12:03.110Z,78.84
2022-10-11T20:14:30.555Z,78.89
2022-10-11T20:16:58.427Z,78.06
2022-10-11T20:19:31.676Z,78.10
2022-10-11T20:22:00.822Z,78.63
2022-10-11T20:24:32.725Z,79.57
2022-10-11T20:27:04.014Z,79.83
2022-10-11T20:29:31.525Z,79.01
2022-10-11T20:31:59.077Z,79.40
2022-10-11T20:34:27.707Z,79.50
2022-10-11T20:36:55.144Z,79.89
2022-10-11T20:39:23.655Z,79.65
2022-10-11T20:41:51.501Z,78.95
2022-10-11T20:44:18.947Z,79.17
2022-10-11T20:46:46.405Z,79.38
2022-10-11T20:49:14.206Z,79.21
2022-10-11T20:51:42.718Z,79.09
2022-10-11T20:54:10.740Z,79.52
2022-10-11T20:56:39.778Z,80.21
2022-10-11T20:59:08.319Z,80.44
2022-10-11T21:01:38.878Z,79.92
2022-10-11T21:04:10.356Z,80.03
2022-10-11T21:06:37.779Z,79.38
2022-10-11T21:09:05.204Z,79.30
2022-10-11T21:11:33.816Z,79.97
2022-10-11T21:14:04.760Z,80.20
2022-10-11T21:16:33.594Z,80.47
2022-10-11T21:19:02.502Z,80.40
2022-10-11T21:21:30.491Z,80.30
2022-10-11T21:24:01.926Z,80.31
2022-10-11T21:26:31.040Z,80.10
2022-10-11T21:29:01.231Z,79.87
2022-10-11T21:31:33.746Z,79.64
2022-10-11T21:34:02.610Z,79.60
2022-10-11T21:36:31.062Z,79.82
2022-10-11T21:38:58.482Z,80.14
2022-10-11T21:41:29.011Z,80.00
2022-10-11T21:43:56.892Z,79.49
2022-10-11T21:46:47.517Z,79.37
2022-10-11T21:49:15.083Z,78.74
2022-10-11T21:51:42.605Z,78.80
2022-10-11T21:54:10.147Z,78.91
2022-10-11T21:56:37.836Z,79.92
2022-10-11T21:59:07.927Z,81.07
2022-10-11T22:01:39.492Z,81.26
2022-10-11T22:04:07.585Z,81.00
2022-10-11T22:06:35.793Z,81.49
2022-10-11T22:09:04.837Z,81.45
2022-10-11T22:11:32.764Z,81.37
2022-10-11T22:14:00.319Z,81.30
2022-10-11T22:16:27.747Z,81.25
2022-10-11T22:18:55.513Z,81.41
2022-10-11T22:21:24.252Z,81.24
2022-10-11T22:23:53.826Z,80.90
2022-10-11T22:26:24.269Z,80.72
2022-10-11T22:28:51.997Z,80.46
2022-10-11T22:31:20.756Z,80.11
2022-10-11T22:33:49.213Z,80.27
2022-10-11T22:36:17.273Z,80.04
2022-10-11T22:38:45.272Z,80.00
2022-10-11T22:41:13.070Z,80.24
2022-10-11T22:43:40.620Z,81.32
2022-10-11T22:46:08.552Z,81.08
2022-10-11T22:48:37.201Z,80.90
2022-10-11T22:51:04.892Z,81.13
2022-10-11T22:53:32.588Z,80.69
2022-10-11T22:56:00.356Z,80.87
2022-10-11T22:58:27.805Z,81.25
2022-10-11T23:00:55.185Z,80.89
2022-10-11T23:03:22.943Z,80.39
2022-10-11T23:05:57.432Z,80.36
2022-10-11T23:08:25.458Z,80.73
2022-10-11T23:10:53.404Z,80.86
2022-10-11T23:13:20.889Z,81.30
2022-10-11T23:15:48.601Z,82.00
2022-10-11T23:18:16.919Z,81.98
2022-10-11T23:20:44.654Z,81.92
2022-10-11T23:23:12.397Z,82.10
2022-10-11T23:25:39.786Z,82.76
2022-10-11T23:28:07.179Z,82.85
2022-10-11T23:30:34.874Z,82.68
2022-10-11T23:33:02.248Z,83.12
2022-10-11T23:35:29.617Z,83.32
2022-10-11T23:37:57.284Z,83.46
2022-10-11T23:40:24.726Z,83.89
2022-10-11T23:42:52.115Z,83.82
2022-10-11T23:45:19.800Z,83.88
2022-10-11T23:47:47.273Z,83.78
2022-10-11T23:50:14.724Z,83.40
2022-10-11T23:52:42.452Z,83.09
2022-10-11T23:55:09.933Z,82.97
2022-10-11T23:57:37.557Z,82.39
